createdAt,value
2022-09-11T00:01:10.613Z,71.41
2022-09-11T00:03:12.153Z,72.16
2022-09-11T00:05:15.290Z,70.67
2022-09-11T00:07:18.148Z,69.77
2022-09-11T00:09:19.663Z,70.45
2022-09-11T00:11:21.985Z,71.67
2022-09-11T00:13:23.535Z,71.12
2022-09-11T00:15:25.004Z,70.92
2022-09-11T00:17:26.492Z,71.85
2022-09-11T00:19:28.053Z,71.09
2022-09-11T00:21:30.155Z,70.59
2022-09-11T00:23:33.039Z,69.37
2022-09-11T00:25:34.931Z,69.80
2022-09-11T00:27:36.368Z,69.05
2022-09-11T00:29:37.852Z,69.58
2022-09-11T00:31:39.942Z,71.58
2022-09-11T00:33:41.928Z,71.75
2022-09-11T00:35:54.505Z,71.89
2022-09-11T00:37:56.099Z,69.45
2022-09-11T00:39:59.090Z,70.87
2022-09-11T00:42:00.682Z,70.92
2022-09-11T00:44:04.920Z,69.91
2022-09-11T00:46:06.533Z,72.35
2022-09-11T00:48:09.049Z,69.92
2022-09-11T00:50:13.677Z,71.53
2022-09-11T00:52:18.601Z,72.41
2022-09-11T00:54:25.189Z,70.93
2022-09-11T00:56:30.463Z,71.62
2022-09-11T00:58:36.410Z,70.38
2022-09-11T01:00:39.164Z,70.52
2022-09-11T01:02:45.888Z,70.51
2022-09-11T01:04:47.368Z,70.68
2022-09-11T01:06:51.073Z,70.36
2022-09-11T01:08:52.580Z,70.60
2022-09-11T01:11:04.643Z,70.62
2022-09-11T01:13:12.982Z,69.91
2022-09-11T01:15:22.003Z,70.27
2022-09-11T01:17:29.261Z,69.97
2022-09-11T01:19:43.686Z,69.77
2022-09-11T01:22:07.483Z,70.47
2022-09-11T01:24:22.884Z,70.02
2022-09-11T01:27:01.213Z,69.97
2022-09-11T01:29:09.083Z,69.75
2022-09-11T01:31:14.127Z,69.02
2022-09-11T01:33:21.725Z,68.77
2022-09-11T01:35:33.959Z,67.94
2022-09-11T01:37:41.549Z,68.30
2022-09-11T01:39:51.681Z,67.84
2022-09-11T01:41:59.174Z,67.21
2022-09-11T01:44:04.714Z,67.90
2022-09-11T01:46:08.843Z,67.45
2022-09-11T01:48:13.129Z,67.03
2022-09-11T01:50:18.419Z,67.80
2022-09-11T01:52:23.251Z,68.13
2022-09-11T01:54:32.259Z,67.23
2022-09-11T01:56:39.029Z,67.96
2022-09-11T01:58:41.329Z,67.66
2022-09-11T02:00:45.712Z,66.79
2022-09-11T02:02:53.412Z,66.92
2022-09-11T02:05:01.508Z,67.04
2022-09-11T02:07:07.641Z,67.82
2022-09-11T02:09:13.529Z,67.70
2022-09-11T02:11:16.040Z,68.10
2022-09-11T02:13:27.184Z,67.56
2022-09-11T02:15:38.060Z,67.78
2022-09-11T02:17:47.813Z,66.60
2022-09-11T02:19:52.093Z,67.44
2022-09-11T02:21:53.915Z,67.13
2022-09-11T02:23:55.803Z,68.40
2022-09-11T02:25:57.368Z,67.93
2022-09-11T02:27:59.042Z,68.87
2022-09-11T02:30:00.852Z,67.90
2022-09-11T02:32:03.247Z,67.93
2022-09-11T02:34:05.273Z,68.43
2022-09-11T02:36:24.309Z,67.75
2022-09-11T02:38:32.126Z,67.69
2022-09-11T02:40:44.325Z,67.64
2022-09-11T02:43:06.459Z,68.04
2022-09-11T02:45:20.390Z,67.00
2022-09-11T02:47:38.932Z,67.86
2022-09-11T02:49:52.710Z,68.00
2022-09-11T02:52:05.488Z,66.90
2022-09-11T02:54:17.980Z,67.53
2022-09-11T02:56:28.638Z,67.33
2022-09-11T02:58:35.554Z,68.12
2022-09-11T03:00:37.113Z,68.25
2022-09-11T03:02:41.995Z,67.24
2022-09-11T03:04:43.871Z,67.89
2022-09-11T03:06:45.459Z,67.15
2022-09-11T03:08:48.489Z,67.56
2022-09-11T03:10:50.103Z,67.07
2022-09-11T03:12:51.559Z,67.04
2022-09-11T03:14:53.065Z,67.45
2022-09-11T03:16:54.601Z,67.15
2022-09-11T03:18:56.073Z,66.76
2022-09-11T03:20:57.572Z,67.06
2022-09-11T03:22:59.138Z,66.47
2022-09-11T03:25:02.008Z,67.28
2022-09-11T03:27:03.740Z,67.46
2022-09-11T03:29:05.657Z,67.40
2022-09-11T03:31:07.306Z,68.28
2022-09-11T03:33:09.195Z,67.76
2022-09-11T03:35:10.676Z,68.26
2022-09-11T03:37:12.230Z,67.91
2022-09-11T03:39:13.737Z,67.94
2022-09-11T03:41:16.539Z,67.97
2022-09-11T03:43:17.982Z,67.57
2022-09-11T03:45:20.096Z,68.11
2022-09-11T03:47:21.609Z,68.36
2022-09-11T03:49:23.107Z,68.63
2022-09-11T03:51:24.736Z,67.75
2022-09-11T03:53:26.551Z,67.92
2022-09-11T03:55:28.043Z,68.27
2022-09-11T03:57:32.762Z,67.38
2022-09-11T03:59:34.256Z,68.04
2022-09-11T04:01:35.754Z,68.23
2022-09-11T04:03:37.246Z,67.85
2022-09-11T04:05:38.848Z,67.55
2022-09-11T04:07:40.584Z,67.27
2022-09-11T04:09:42.076Z,68.01
2022-09-11T04:11:43.653Z,68.11
2022-09-11T04:13:46.626Z,67.20
2022-09-11T04:15:48.120Z,66.82
2022-09-11T04:17:49.700Z,66.39
2022-09-11T04:19:51.168Z,67.22
2022-09-11T04:21:52.651Z,66.39
2022-09-11T04:23:54.821Z,67.00
2022-09-11T04:25:56.380Z,66.74
2022-09-11T04:27:57.841Z,66.60
2022-09-11T04:30:00.742Z,66.21
2022-09-11T04:32:02.620Z,67.19
2022-09-11T04:34:04.418Z,66.13
2022-09-11T04:36:07.059Z,66.00
2022-09-11T04:38:08.616Z,66.15
2022-09-11T04:40:10.450Z,66.81
2022-09-11T04:42:12.012Z,66.91
2022-09-11T04:44:13.809Z,67.93
2022-09-11T04:46:17.694Z,67.14
2022-09-11T04:48:19.320Z,66.63
2022-09-11T04:50:20.770Z,66.75
2022-09-11T04:52:22.293Z,65.80
2022-09-11T04:54:23.782Z,67.40
2022-09-11T04:56:27.181Z,67.59
2022-09-11T04:58:28.939Z,66.22
2022-09-11T05:00:30.497Z,66.61
2022-09-11T05:02:33.395Z,66.81
2022-09-11T05:04:34.975Z,66.02
2022-09-11T05:06:36.742Z,66.53
2022-09-11T05:08:38.255Z,66.45
2022-09-11T05:10:42.533Z,65.97
2022-09-11T05:12:44.022Z,65.98
2022-09-11T05:14:45.648Z,66.81
2022-09-11T05:16:47.293Z,66.85
2022-09-11T05:18:51.700Z,66.71
2022-09-11T05:20:59.087Z,66.82
2022-09-11T05:23:00.621Z,66.35
2022-09-11T05:25:02.135Z,65.92
2022-09-11T05:27:04.030Z,66.68
2022-09-11T05:29:07.647Z,66.89
2022-09-11T05:31:13.930Z,67.62
2022-09-11T05:33:15.452Z,66.42
2022-09-11T05:35:18.352Z,66.45
2022-09-11T05:37:19.812Z,66.10
2022-09-11T05:39:21.429Z,66.04
2022-09-11T05:41:23.106Z,66.68
2022-09-11T05:43:24.685Z,67.35
2022-09-11T05:45:26.195Z,67.12
2022-09-11T05:47:27.726Z,67.19
2022-09-11T05:49:29.204Z,66.62
2022-09-11T05:51:32.062Z,66.98
2022-09-11T05:53:34.247Z,66.61
2022-09-11T05:55:35.853Z,66.72
2022-09-11T05:57:37.357Z,67.45
2022-09-11T05:59:38.820Z,67.57
2022-09-11T06:01:40.466Z,67.56
2022-09-11T06:03:42.816Z,68.34
2022-09-11T06:05:44.668Z,67.81
2022-09-11T06:07:47.590Z,67.58
2022-09-11T06:09:49.142Z,67.60
2022-09-11T06:11:50.646Z,67.62
2022-09-11T06:13:52.330Z,67.24
2022-09-11T06:15:53.855Z,67.17
2022-09-11T06:17:55.877Z,67.18
2022-09-11T06:19:57.389Z,67.63
2022-09-11T06:21:59.069Z,67.42
2022-09-11T06:24:02.464Z,67.77
2022-09-11T06:26:05.060Z,65.83
2022-09-11T06:28:06.561Z,65.90
2022-09-11T06:30:09.281Z,65.63
2022-09-11T06:32:11.185Z,65.25
2022-09-11T06:34:12.694Z,65.50
2022-09-11T06:36:16.003Z,66.16
2022-09-11T06:38:17.549Z,66.41
2022-09-11T06:40:20.401Z,68.13
2022-09-11T06:42:21.869Z,66.65
2022-09-11T06:44:23.344Z,66.99
2022-09-11T06:46:26.004Z,68.20
2022-09-11T06:48:27.544Z,67.38
2022-09-11T06:50:29.153Z,67.10
2022-09-11T06:52:33.278Z,67.01
2022-09-11T06:54:34.824Z,67.02
2022-09-11T06:56:37.751Z,67.63
2022-09-11T06:58:39.559Z,65.55
2022-09-11T07:00:41.060Z,66.96
2022-09-11T07:02:42.679Z,65.33
2022-09-11T07:04:44.212Z,65.06
2022-09-11T07:06:45.754Z,67.26
2022-09-11T07:08:50.557Z,65.91
2022-09-11T07:10:52.199Z,66.11
2022-09-11T07:12:55.181Z,66.11
2022-09-11T07:14:56.759Z,64.89
2022-09-11T07:17:00.073Z,64.48
2022-09-11T07:19:01.703Z,64.83
2022-09-11T07:21:06.769Z,64.54
2022-09-11T07:23:08.837Z,63.47
2022-09-11T07:25:10.383Z,62.85
2022-09-11T07:27:11.884Z,63.66
2022-09-11T07:29:15.111Z,63.60
2022-09-11T07:31:21.178Z,63.68
2022-09-11T07:33:22.865Z,63.29
2022-09-11T07:35:24.410Z,64.38
2022-09-11T07:37:25.911Z,64.49
2022-09-11T07:39:27.453Z,64.24
2022-09-11T07:41:29.227Z,64.50
2022-09-11T07:43:30.857Z,64.27
2022-09-11T07:45:34.532Z,65.76
2022-09-11T07:47:36.123Z,64.01
2022-09-11T07:49:37.664Z,65.04
2022-09-11T07:51:39.561Z,61.94
2022-09-11T07:53:43.479Z,62.96
2022-09-11T07:55:45.186Z,63.63
2022-09-11T07:57:46.773Z,62.28
2022-09-11T07:59:48.617Z,60.52
2022-09-11T08:01:51.703Z,61.10
2022-09-11T08:03:54.529Z,63.11
2022-09-11T08:05:57.617Z,62.14
2022-09-11T08:07:59.113Z,63.37
2022-09-11T08:10:25.646Z,61.62
2022-09-11T08:12:22.210Z,61.67
2022-09-11T08:14:24.622Z,62.48
2022-09-11T08:16:27.271Z,63.82
2022-09-11T08:18:30.347Z,62.50
2022-09-11T08:20:32.053Z,60.86
2022-09-11T08:22:33.590Z,61.14
2022-09-11T08:24:35.116Z,61.13
2022-09-11T08:26:36.917Z,60.40
2022-09-11T08:28:39.414Z,61.67
2022-09-11T08:30:40.960Z,60.69
2022-09-11T08:32:42.449Z,60.00
2022-09-11T08:34:45.383Z,58.89
2022-09-11T08:36:47.095Z,59.70
2022-09-11T08:38:48.964Z,61.30
2022-09-11T08:40:51.112Z,60.75
2022-09-11T08:42:55.431Z,59.77
2022-09-11T08:45:00.445Z,58.37
2022-09-11T08:47:06.586Z,58.90
2022-09-11T08:49:16.969Z,58.49
2022-09-11T08:51:20.404Z,58.07
2022-09-11T08:53:21.970Z,56.21
2022-09-11T08:55:29.897Z,58.21
2022-09-11T08:57:39.494Z,56.36
2022-09-11T08:59:59.248Z,57.39
2022-09-11T09:02:21.377Z,57.62
2022-09-11T09:04:35.608Z,59.32
2022-09-11T09:06:51.393Z,59.38
2022-09-11T09:09:03.140Z,58.55
2022-09-11T09:11:13.343Z,57.65
2022-09-11T09:13:31.907Z,56.46
2022-09-11T09:15:46.204Z,55.66
2022-09-11T09:17:53.550Z,55.11
2022-09-11T09:19:59.782Z,54.33
2022-09-11T09:22:10.347Z,53.90
2022-09-11T09:24:16.510Z,54.11
2022-09-11T09:26:18.898Z,53.82
2022-09-11T09:28:21.855Z,53.37
2022-09-11T09:30:23.877Z,53.86
2022-09-11T09:32:30.847Z,53.50
2022-09-11T09:34:36.912Z,52.77
2022-09-11T09:36:45.848Z,51.94
2022-09-11T09:38:48.801Z,51.71
2022-09-11T09:41:02.859Z,52.08
2022-09-11T09:43:28.374Z,51.22
2022-09-11T09:45:39.428Z,50.44
2022-09-11T09:47:43.564Z,53.53
2022-09-11T09:49:46.256Z,53.10
2022-09-11T09:51:48.498Z,52.37
2022-09-11T09:53:56.583Z,51.74
2022-09-11T09:55:59.623Z,51.94
2022-09-11T09:58:01.346Z,51.22
2022-09-11T10:00:14.845Z,50.78
2022-09-11T10:02:36.905Z,51.79
2022-09-11T10:04:38.571Z,51.28
2022-09-11T10:06:40.304Z,50.72
2022-09-11T10:08:42.341Z,50.63
2022-09-11T10:10:54.294Z,50.62
2022-09-11T10:13:17.572Z,49.90
2022-09-11T10:15:21.873Z,49.73
2022-09-11T10:17:30.923Z,51.36
2022-09-11T10:19:40.994Z,50.21
2022-09-11T10:21:42.508Z,50.50
2022-09-11T10:23:46.576Z,49.75
2022-09-11T10:25:49.718Z,49.20
2022-09-11T10:28:00.418Z,48.71
2022-09-11T10:30:02.555Z,48.74
2022-09-11T10:32:04.506Z,48.67
2022-09-11T10:34:06.537Z,47.99
2022-09-11T10:36:09.880Z,48.71
2022-09-11T10:38:17.256Z,48.04
2022-09-11T10:40:22.742Z,49.26
2022-09-11T10:42:27.864Z,51.58
2022-09-11T10:44:29.900Z,50.83
2022-09-11T10:46:40.584Z,51.49
2022-09-11T10:48:42.582Z,53.23
2022-09-11T10:50:44.163Z,52.17
2022-09-11T10:53:07.982Z,52.85
2022-09-11T10:55:12.819Z,51.71
2022-09-11T10:57:21.907Z,53.16
2022-09-11T10:59:32.197Z,51.21
2022-09-11T11:01:34.068Z,51.76
2022-09-11T11:03:35.843Z,52.12
2022-09-11T11:05:48.507Z,52.15
2022-09-11T11:08:17.820Z,52.14
2022-09-11T11:10:29.868Z,53.10
2022-09-11T11:12:50.617Z,54.96
2022-09-11T11:15:27.006Z,55.76
2022-09-11T11:17:41.860Z,56.02
2022-09-11T11:20:02.732Z,56.14
2022-09-11T11:22:12.642Z,55.79
2022-09-11T11:24:26.400Z,56.48
2022-09-11T11:26:46.569Z,57.18
2022-09-11T11:29:10.874Z,57.02
2022-09-11T11:31:31.076Z,57.90
2022-09-11T11:34:02.927Z,57.51
2022-09-11T11:36:09.113Z,57.84
2022-09-11T11:38:16.281Z,57.33
2022-09-11T11:40:27.017Z,57.05
2022-09-11T11:42:34.082Z,57.24
2022-09-11T11:44:41.731Z,57.34
2022-09-11T11:46:48.414Z,56.00
2022-09-11T11:48:54.557Z,54.82
2022-09-11T11:51:00.650Z,56.35
2022-09-11T11:53:07.931Z,55.68
2022-09-11T11:55:17.351Z,56.38
2022-09-11T11:57:22.059Z,56.55
2022-09-11T11:59:28.891Z,54.58
2022-09-11T12:01:38.049Z,55.03
2022-09-11T12:03:48.570Z,56.24
2022-09-11T12:05:50.400Z,56.70
2022-09-11T12:07:52.937Z,56.71
2022-09-11T12:09:56.280Z,56.13
2022-09-11T12:12:04.972Z,57.57
2022-09-11T12:14:06.973Z,56.68
2022-09-11T12:16:16.239Z,57.63
2022-09-11T12:18:23.670Z,57.14
2022-09-11T12:20:34.083Z,57.08
2022-09-11T12:22:39.916Z,58.26
2022-09-11T12:24:54.225Z,56.64
2022-09-11T12:27:32.998Z,57.38
2022-09-11T12:29:56.456Z,55.82
2022-09-11T12:32:37.732Z,55.81
2022-09-11T12:35:02.683Z,55.56
2022-09-11T12:37:12.265Z,54.80
2022-09-11T12:39:29.316Z,55.56
2022-09-11T12:41:33.305Z,54.28
2022-09-11T12:43:50.300Z,54.54
2022-09-11T12:45:52.028Z,55.41
2022-09-11T12:47:53.639Z,53.54
2022-09-11T12:50:06.738Z,53.21
2022-09-11T12:52:26.075Z,54.36
2022-09-11T12:54:37.176Z,53.65
2022-09-11T12:56:46.556Z,53.34
2022-09-11T12:58:54.940Z,53.00
2022-09-11T13:01:22.657Z,55.41
2022-09-11T13:03:26.816Z,55.88
2022-09-11T13:05:31.683Z,53.72
2022-09-11T13:07:41.730Z,53.75
2022-09-11T13:09:49.110Z,53.94
2022-09-11T13:11:52.270Z,53.38
2022-09-11T13:13:53.809Z,56.45
2022-09-11T13:15:55.332Z,54.42
2022-09-11T13:17:56.894Z,55.83
2022-09-11T13:20:23.026Z,53.78
2022-09-11T13:22:26.634Z,53.27
2022-09-11T13:24:31.426Z,53.51
2022-09-11T13:26:33.119Z,52.97
2022-09-11T13:28:43.331Z,53.79
2022-09-11T13:30:54.444Z,54.45
2022-09-11T13:33:05.525Z,54.52
2022-09-11T13:35:13.122Z,52.88
2022-09-11T13:37:25.916Z,52.82
2022-09-11T13:39:29.436Z,53.50
2022-09-11T13:41:37.809Z,51.48
2022-09-11T13:43:44.580Z,50.10
2022-09-11T13:45:47.485Z,52.81
2022-09-11T13:47:49.132Z,51.03
2022-09-11T13:49:54.176Z,50.85
2022-09-11T13:51:55.850Z,51.32
2022-09-11T13:54:03.954Z,52.09
2022-09-11T13:56:18.495Z,51.10
2022-09-11T13:58:23.140Z,50.57
2022-09-11T14:00:43.621Z,50.76
2022-09-11T14:02:50.893Z,51.00
2022-09-11T14:04:55.351Z,51.30
2022-09-11T14:06:57.341Z,50.48
2022-09-11T14:08:59.033Z,51.32
2022-09-11T14:11:08.123Z,50.96
2022-09-11T14:13:19.153Z,53.04
2022-09-11T14:15:28.050Z,54.27
2022-09-11T14:17:29.757Z,54.39
2022-09-11T14:19:35.893Z,53.14
2022-09-11T14:21:40.063Z,53.69
2022-09-11T14:23:44.962Z,53.51
2022-09-11T14:26:10.552Z,51.93
2022-09-11T14:28:35.637Z,52.37
2022-09-11T14:30:37.761Z,50.55
2022-09-11T14:32:39.511Z,49.66
2022-09-11T14:34:41.142Z,52.43
2022-09-11T14:36:45.942Z,49.95
2022-09-11T14:38:47.918Z,49.41
2022-09-11T14:40:53.949Z,49.79
2022-09-11T14:42:55.716Z,49.00
2022-09-11T14:44:59.126Z,48.71
2022-09-11T14:47:00.851Z,49.64
2022-09-11T14:49:02.437Z,50.24
2022-09-11T14:51:04.815Z,52.62
2022-09-11T14:53:06.381Z,51.84
2022-09-11T14:55:13.709Z,51.55
2022-09-11T14:57:20.550Z,50.45
2022-09-11T14:59:22.657Z,49.96
2022-09-11T15:01:25.600Z,48.80
2022-09-11T15:03:27.210Z,49.74
2022-09-11T15:05:28.821Z,49.95
2022-09-11T15:07:30.434Z,49.15
2022-09-11T15:09:31.916Z,48.94
2022-09-11T15:11:37.434Z,54.59
2022-09-11T15:13:52.765Z,54.73
2022-09-11T15:16:02.625Z,54.73
2022-09-11T15:18:05.771Z,52.43
2022-09-11T15:20:08.243Z,50.44
2022-09-11T15:22:10.009Z,49.05
2022-09-11T15:24:11.669Z,49.37
2022-09-11T15:26:13.207Z,47.82
2022-09-11T15:28:14.984Z,48.87
2022-09-11T15:30:16.883Z,49.08
2022-09-11T15:32:18.432Z,48.16
2022-09-11T15:34:22.898Z,51.20
2022-09-11T15:36:24.653Z,50.39
2022-09-11T15:38:26.363Z,47.90
2022-09-11T15:40:27.913Z,52.67
2022-09-11T15:42:29.583Z,50.07
2022-09-11T15:44:31.176Z,49.17
2022-09-11T15:46:32.722Z,48.30
2022-09-11T15:48:34.421Z,47.30
2022-09-11T15:50:37.352Z,49.68
2022-09-11T15:52:39.150Z,48.48
2022-09-11T15:54:41.089Z,48.60
2022-09-11T15:56:42.847Z,48.39
2022-09-11T15:58:46.217Z,51.85
2022-09-11T16:00:47.882Z,50.49
2022-09-11T16:02:51.186Z,53.60
2022-09-11T16:04:53.919Z,49.14
2022-09-11T16:06:57.051Z,48.51
2022-09-11T16:08:59.885Z,47.84
2022-09-11T16:11:03.500Z,52.54
2022-09-11T16:13:05.180Z,48.57
2022-09-11T16:15:07.526Z,54.05
2022-09-11T16:17:09.076Z,52.94
2022-09-11T16:19:10.664Z,49.59
2022-09-11T16:21:14.920Z,48.50
2022-09-11T16:23:17.907Z,49.95
2022-09-11T16:25:19.474Z,51.09
2022-09-11T16:27:21.168Z,50.21
2022-09-11T16:29:24.548Z,48.96
2022-09-11T16:31:26.146Z,47.38
2022-09-11T16:33:28.094Z,48.19
2022-09-11T16:35:29.718Z,47.62
2022-09-11T16:37:31.554Z,48.49
2022-09-11T16:39:34.464Z,48.94
2022-09-11T16:41:36.455Z,48.29
2022-09-11T16:43:39.444Z,49.67
2022-09-11T16:45:49.995Z,48.46
2022-09-11T16:47:51.731Z,48.43
2022-09-11T16:50:10.350Z,48.19
2022-09-11T16:52:12.336Z,48.26
2022-09-11T16:54:14.851Z,48.99
2022-09-11T16:56:19.872Z,48.91
2022-09-11T16:58:22.814Z,49.58
2022-09-11T17:00:24.373Z,48.67
2022-09-11T17:02:26.448Z,50.88
2022-09-11T17:04:28.183Z,49.53
2022-09-11T17:06:29.718Z,50.32
2022-09-11T17:08:31.317Z,50.97
2022-09-11T17:10:32.913Z,49.02
2022-09-11T17:12:35.821Z,49.42
2022-09-11T17:14:37.539Z,52.00
2022-09-11T17:16:39.079Z,49.29
2022-09-11T17:18:40.830Z,50.46
2022-09-11T17:20:42.771Z,54.88
2022-09-11T17:22:44.281Z,54.31
2022-09-11T17:24:45.806Z,55.35
2022-09-11T17:26:47.528Z,57.47
2022-09-11T17:28:51.520Z,58.27
2022-09-11T17:30:53.367Z,57.51
2022-09-11T17:32:55.123Z,54.96
2022-09-11T17:34:57.737Z,55.15
2022-09-11T17:36:59.251Z,56.69
2022-09-11T17:39:00.987Z,54.80
2022-09-11T17:41:05.673Z,55.64
2022-09-11T17:43:07.438Z,57.09
2022-09-11T17:45:11.684Z,57.84
2022-09-11T17:47:13.271Z,57.99
2022-09-11T17:49:14.890Z,58.96
2022-09-11T17:51:19.034Z,58.73
2022-09-11T17:53:20.568Z,55.61
2022-09-11T17:55:22.237Z,59.14
2022-09-11T17:57:24.041Z,57.71
2022-09-11T17:59:25.967Z,58.70
2022-09-11T18:01:31.715Z,57.43
2022-09-11T18:03:39.932Z,56.01
2022-09-11T18:05:41.745Z,57.32
2022-09-11T18:07:43.378Z,56.42
2022-09-11T18:09:46.282Z,53.87
2022-09-11T18:11:49.242Z,53.62
2022-09-11T18:13:50.887Z,53.94
2022-09-11T18:15:53.569Z,54.93
2022-09-11T18:17:56.907Z,55.33
2022-09-11T18:19:58.754Z,54.87
2022-09-11T18:22:00.549Z,54.99
2022-09-11T18:24:02.503Z,55.19
2022-09-11T18:26:04.889Z,56.16
2022-09-11T18:28:07.049Z,55.54
2022-09-11T18:30:09.907Z,56.06
2022-09-11T18:32:11.800Z,55.68
2022-09-11T18:34:17.674Z,56.38
2022-09-11T18:36:19.414Z,55.52
2022-09-11T18:38:21.187Z,56.20
2022-09-11T18:40:23.701Z,55.57
2022-09-11T18:42:25.298Z,55.31
2022-09-11T18:44:27.213Z,55.73
2022-09-11T18:46:28.952Z,56.77
2022-09-11T18:48:30.704Z,56.54
2022-09-11T18:50:35.815Z,56.58
2022-09-11T18:52:37.604Z,56.42
2022-09-11T18:54:39.489Z,56.40
2022-09-11T18:56:42.011Z,55.91
2022-09-11T18:58:44.046Z,55.56
2022-09-11T19:00:45.809Z,55.87
2022-09-11T19:02:48.641Z,56.45
2022-09-11T19:04:50.218Z,56.41
2022-09-11T19:06:53.599Z,56.49
2022-09-11T19:08:55.724Z,56.32
2022-09-11T19:10:57.564Z,56.73
2022-09-11T19:13:00.122Z,56.71
2022-09-11T19:15:02.128Z,57.49
2022-09-11T19:17:05.610Z,57.20
2022-09-11T19:19:07.674Z,57.34
2022-09-11T19:21:11.909Z,58.14
2022-09-11T19:23:14.926Z,57.42
2022-09-11T19:25:16.772Z,56.90
2022-09-11T19:27:18.845Z,56.82
2022-09-11T19:29:20.430Z,57.82
2022-09-11T19:31:23.672Z,57.75
2022-09-11T19:33:25.462Z,58.32
2022-09-11T19:35:27.216Z,57.55
2022-09-11T19:37:28.763Z,57.35
2022-09-11T19:39:31.962Z,57.47
2022-09-11T19:41:36.028Z,57.78
2022-09-11T19:43:38.076Z,57.59
2022-09-11T19:45:40.575Z,56.93
2022-09-11T19:47:42.321Z,57.17
2022-09-11T19:49:43.886Z,58.35
2022-09-11T19:51:45.547Z,57.94
2022-09-11T19:53:48.331Z,59.06
2022-09-11T19:55:54.103Z,58.29
2022-09-11T19:57:55.672Z,58.55
2022-09-11T19:59:57.253Z,58.71
2022-09-11T20:02:00.396Z,59.33
2022-09-11T20:04:02.637Z,58.94
2022-09-11T20:06:04.884Z,59.67
2022-09-11T20:08:06.566Z,59.19
2022-09-11T20:10:09.256Z,58.91
2022-09-11T20:12:12.183Z,59.46
2022-09-11T20:14:13.750Z,59.64
2022-09-11T20:16:17.537Z,60.02
2022-09-11T20:18:19.430Z,58.75
2022-09-11T20:20:21.192Z,59.84
2022-09-11T20:22:22.784Z,59.40
2022-09-11T20:24:24.693Z,58.97
2022-09-11T20:26:28.414Z,58.93
2022-09-11T20:28:31.382Z,58.99
2022-09-11T20:30:33.401Z,59.04
2022-09-11T20:32:36.672Z,59.53
2022-09-11T20:34:38.817Z,59.47
2022-09-11T20:36:40.604Z,59.61
2022-09-11T20:38:42.581Z,60.31
2022-09-11T20:40:44.429Z,58.91
2022-09-11T20:42:46.290Z,59.83
2022-09-11T20:44:49.484Z,60.50
2022-09-11T20:46:51.269Z,60.50
2022-09-11T20:48:53.511Z,58.74
2022-09-11T20:50:55.261Z,58.70
2022-09-11T20:52:56.799Z,58.23
2022-09-11T20:55:00.502Z,58.73
2022-09-11T20:57:02.302Z,59.55
2022-09-11T20:59:03.933Z,58.47
2022-09-11T21:01:08.000Z,59.14
2022-09-11T21:03:09.631Z,60.54
2022-09-11T21:05:11.341Z,60.71
2022-09-11T21:07:12.980Z,60.52
2022-09-11T21:09:14.498Z,60.21
2022-09-11T21:11:16.073Z,60.58
2022-09-11T21:13:18.056Z,60.46
2022-09-11T21:15:19.630Z,60.29
2022-09-11T21:17:22.657Z,60.72
2022-09-11T21:19:24.260Z,60.94
2022-09-11T21:21:27.152Z,61.29
2022-09-11T21:23:28.782Z,60.84
2022-09-11T21:25:30.404Z,61.48
2022-09-11T21:27:32.054Z,60.46
2022-09-11T21:29:33.634Z,60.72
2022-09-11T21:31:35.719Z,60.26
2022-09-11T21:33:38.690Z,59.48
2022-09-11T21:35:40.194Z,59.96
2022-09-11T21:37:41.712Z,59.02
2022-09-11T21:39:43.262Z,59.83
2022-09-11T21:41:44.808Z,59.75
2022-09-11T21:43:47.526Z,59.61
2022-09-11T21:45:49.176Z,58.68
2022-09-11T21:47:50.679Z,59.73
2022-09-11T21:49:53.726Z,58.75
2022-09-11T21:51:55.234Z,59.66
2022-09-11T21:53:58.551Z,59.52
2022-09-11T21:56:00.127Z,59.92
2022-09-11T21:58:01.702Z,59.59
2022-09-11T22:00:05.786Z,60.20
2022-09-11T22:02:07.423Z,60.77
2022-09-11T22:04:09.048Z,59.98
2022-09-11T22:06:13.269Z,59.68
2022-09-11T22:08:17.653Z,60.15
2022-09-11T22:10:19.569Z,60.70
2022-09-11T22:12:21.315Z,59.91
2022-09-11T22:14:23.031Z,60.66
2022-09-11T22:16:24.888Z,60.69
2022-09-11T22:18:26.465Z,59.78
2022-09-11T22:20:28.005Z,60.74
2022-09-11T22:22:36.217Z,59.79
2022-09-11T22:24:38.103Z,60.34
2022-09-11T22:26:39.661Z,60.33
2022-09-11T22:28:41.939Z,60.41
2022-09-11T22:30:43.823Z,59.34
2022-09-11T22:32:45.394Z,59.53
2022-09-11T22:34:46.899Z,60.45
2022-09-11T22:36:48.430Z,60.85
2022-09-11T22:38:51.984Z,61.16
2022-09-11T22:40:53.954Z,60.96
2022-09-11T22:42:55.473Z,60.01
2022-09-11T22:44:57.003Z,61.11
2022-09-11T22:46:58.532Z,61.30
2022-09-11T22:49:00.090Z,61.13
2022-09-11T22:51:01.902Z,60.53
2022-09-11T22:53:03.473Z,60.98
2022-09-11T22:55:07.634Z,61.49
2022-09-11T22:57:09.199Z,60.92
2022-09-11T22:59:10.819Z,60.75
2022-09-11T23:01:14.245Z,61.10
2022-09-11T23:03:15.983Z,61.63
2022-09-11T23:05:17.478Z,60.48
2022-09-11T23:07:18.973Z,59.64
2022-09-11T23:09:20.583Z,60.35
2022-09-11T23:11:23.459Z,60.57
2022-09-11T23:13:25.053Z,60.36
2022-09-11T23:15:27.785Z,60.78
2022-09-11T23:17:29.269Z,60.97
2022-09-11T23:19:30.737Z,60.20
2022-09-11T23:21:34.191Z,60.66
2022-09-11T23:23:36.698Z,60.63
2022-09-11T23:25:38.911Z,59.74
2022-09-11T23:27:43.665Z,59.78
2022-09-11T23:29:45.189Z,60.21
2022-09-11T23:31:46.762Z,60.26
2022-09-11T23:33:48.450Z,60.39
2022-09-11T23:35:49.977Z,60.52
2022-09-11T23:37:51.667Z,59.82
2022-09-11T23:39:53.313Z,61.60
2022-09-11T23:41:54.874Z,60.70
2022-09-11T23:43:57.916Z,60.42
2022-09-11T23:45:59.591Z,60.75
2022-09-11T23:48:01.436Z,60.95
2022-09-11T23:50:03.044Z,60.98
2022-09-11T23:52:05.161Z,60.33
2022-09-11T23:54:06.857Z,60.67
2022-09-11T23:56:08.350Z,60.97
2022-09-11T23:58:09.854Z,60.74
